This is the latest recevied weather packets stored in our database for station/object DG9BJA-13. If no packets are shown the sender has not sent any weather packets the latest 10 day(s).
| Time | Temp. | Humidity | Pressure | Rain* | Wind** | Luminosity | Snow |
|---|---|---|---|---|---|---|---|
| 1777764977 | 15° C | 94% | 1014.1 hPa | 0.25 mm | - | 0 W/m² | - |
| 1777764377 | 15° C | 94% | 1014 hPa | 0.25 mm | - | 0 W/m² | - |
| 1777763776 | 15° C | 94% | 1014 hPa | 0.51 mm | - | 0 W/m² | - |
| 1777763176 | 15° C | 94% | 1014.1 hPa | 0.76 mm | - | 0 W/m² | - |
| 1777762576 | 15° C | 93% | 1014.5 hPa | 1.02 mm | - | 0 W/m² | - |
| 1777761977 | 15° C | 93% | 1014.5 hPa | 1.27 mm | - | 0 W/m² | - |
| 1777761376 | 15° C | 93% | 1014.7 hPa | 1.52 mm | - | 0 W/m² | - |
| 1777760776 | 15° C | 93% | 1014.8 hPa | 1.78 mm | - | 0 W/m² | - |
| 1777760176 | 15° C | 93% | 1014.8 hPa | 1.52 mm | - | 0 W/m² | - |
| 1777759576 | 15° C | 92% | 1015.2 hPa | 1.78 mm | - | 0 W/m² | - |
| 1777758977 | 15° C | 92% | 1015.6 hPa | 5.59 mm | - | 0 W/m² | - |
| 1777758377 | 15° C | 92% | 1015.6 hPa | 6.6 mm | - | 0 W/m² | - |
| 1777757777 | 15° C | 91% | 1015.7 hPa | 6.6 mm | - | 0 W/m² | - |
| 1777757177 | 15.56° C | 91% | 1015.6 hPa | 6.35 mm | - | 0 W/m² | - |
| 1777756577 | 15.56° C | 90% | 1015.7 hPa | 6.35 mm | - | 0 W/m² | - |
| 1777755977 | 15.56° C | 88% | 1015.7 hPa | 5.84 mm | - | 0 W/m² | - |
| 1777755377 | 17.22° C | 82% | 1015.2 hPa | 2.03 mm | - | 0 W/m² | - |
| 1777754777 | 17.78° C | 77% | 1015.2 hPa | 0.51 mm | - | 0 W/m² | - |
| 1777754177 | 17.78° C | 79% | 1014.1 hPa | 0.25 mm | - | 0 W/m² | - |
| 1777753577 | 18.33° C | 79% | 1014.1 hPa | 0.25 mm | - | 0 W/m² | - |
| 1777752977 | 19.44° C | 74% | 1014.1 hPa | 0.25 mm | - | 0 W/m² | - |
| 1777752377 | 20° C | 70% | 1014.3 hPa | 0.25 mm | - | 0 W/m² | - |
| 1777751777 | 20.56° C | 62% | 1014.1 hPa | 0 mm | - | 0 W/m² | - |
| 1777751176 | 20.56° C | 60% | 1014.1 hPa | 0 mm | - | 0 W/m² | - |
| 1777750577 | 20.56° C | 59% | 1014.1 hPa | 0 mm | - | 0 W/m² | - |
* Rain latest hour (hover to see other rain measurements)
** Current wind speed in m/s (hover to see current wind gust speed)